<?xml version="1.0" encoding="UTF-8" standalone="no" ?>
<gpx xmlns="http://www.topografix.com/GPX/1/1" xmlns:xsi="http://www.w3.org/2001/XMLSchema-instance" xsi:schemaLocation="http://www.topografix.com/GPX/1/1 http://www.topografix.com/GPX/1/1/gpx.xsd" version="1.1" creator="VisuGPX - https://www.visugpx.com">
  <metadata>
    <name>Turquie_100points</name>
  </metadata>
  <trk>
    <name><![CDATA[Tour d'Europe: étape 519]]></name>
    <extensions>
      <line xmlns="http://www.topografix.com/GPX/gpx_style/0/2">
        <color>0000FF</color>
        <width>4</width>
      </line>
    </extensions>
    <trkseg>
      <trkpt lat="41.64549" lon="41.62557">
        <ele>90.953061</ele>
        <time>2021-11-29T06:41:44.052Z</time>
      </trkpt>
      <trkpt lat="41.64672" lon="41.62418">
        <ele>37.528171</ele>
        <time>2021-11-29T07:05:08.228Z</time>
      </trkpt>
      <trkpt lat="41.6484" lon="41.62212">
        <ele>29.353204</ele>
        <time>2021-11-29T07:06:50.264Z</time>
      </trkpt>
      <trkpt lat="41.64714" lon="41.61965">
        <ele>31.9841</ele>
        <time>2021-11-29T07:07:59.244Z</time>
      </trkpt>
      <trkpt lat="41.64547" lon="41.61724">
        <ele>31.294108</ele>
        <time>2021-11-29T07:09:02.268Z</time>
      </trkpt>
      <trkpt lat="41.64358" lon="41.61495">
        <ele>33.567472</ele>
        <time>2021-11-29T07:10:08.259Z</time>
      </trkpt>
      <trkpt lat="41.64173" lon="41.61258">
        <ele>34.20468</ele>
        <time>2021-11-29T07:11:12.246Z</time>
      </trkpt>
      <trkpt lat="41.63984" lon="41.61038">
        <ele>31.975081</ele>
        <time>2021-11-29T07:12:18.246Z</time>
      </trkpt>
      <trkpt lat="41.63786" lon="41.60827">
        <ele>33.97857</ele>
        <time>2021-11-29T07:13:23.244Z</time>
      </trkpt>
      <trkpt lat="41.636" lon="41.60616">
        <ele>35.684262</ele>
        <time>2021-11-29T07:14:19.306Z</time>
      </trkpt>
      <trkpt lat="41.63412" lon="41.60426">
        <ele>33.630501</ele>
        <time>2021-11-29T07:15:12.261Z</time>
      </trkpt>
      <trkpt lat="41.63218" lon="41.60232">
        <ele>30.09867</ele>
        <time>2021-11-29T07:16:06.273Z</time>
      </trkpt>
      <trkpt lat="41.63003" lon="41.60033">
        <ele>28.222335</ele>
        <time>2021-11-29T07:17:08.247Z</time>
      </trkpt>
      <trkpt lat="41.62807" lon="41.5983">
        <ele>29.944147</ele>
        <time>2021-11-29T07:18:14.241Z</time>
      </trkpt>
      <trkpt lat="41.62636" lon="41.59629">
        <ele>32.337001</ele>
        <time>2021-11-29T07:19:17.266Z</time>
      </trkpt>
      <trkpt lat="41.62449" lon="41.59415">
        <ele>35.19823</ele>
        <time>2021-11-29T07:20:23.248Z</time>
      </trkpt>
      <trkpt lat="41.62262" lon="41.59168">
        <ele>34.788369</ele>
        <time>2021-11-29T07:21:29.252Z</time>
      </trkpt>
      <trkpt lat="41.6207" lon="41.58954">
        <ele>32.909867</ele>
        <time>2021-11-29T07:22:29.258Z</time>
      </trkpt>
      <trkpt lat="41.61892" lon="41.58744">
        <ele>29.960556</ele>
        <time>2021-11-29T07:23:35.264Z</time>
      </trkpt>
      <trkpt lat="41.61865" lon="41.58954">
        <ele>26.190353</ele>
        <time>2021-11-29T07:24:45.243Z</time>
      </trkpt>
      <trkpt lat="41.61721" lon="41.59205">
        <ele>28.825825</ele>
        <time>2021-11-29T07:26:05.235Z</time>
      </trkpt>
      <trkpt lat="41.61579" lon="41.59447">
        <ele>27.100954</ele>
        <time>2021-11-29T07:27:24.264Z</time>
      </trkpt>
      <trkpt lat="41.61432" lon="41.59679">
        <ele>30.624418</ele>
        <time>2021-11-29T07:28:45.251Z</time>
      </trkpt>
      <trkpt lat="41.61268" lon="41.59893">
        <ele>28.883502</ele>
        <time>2021-11-29T07:30:01.275Z</time>
      </trkpt>
      <trkpt lat="41.61113" lon="41.60108">
        <ele>30.335477</ele>
        <time>2021-11-29T07:31:18.285Z</time>
      </trkpt>
      <trkpt lat="41.61049" lon="41.60417">
        <ele>37.284289</ele>
        <time>2021-11-29T07:32:44.270Z</time>
      </trkpt>
      <trkpt lat="41.61012" lon="41.60713">
        <ele>39.979273</ele>
        <time>2021-11-29T07:34:02.307Z</time>
      </trkpt>
      <trkpt lat="41.60942" lon="41.61003">
        <ele>41.841118</ele>
        <time>2021-11-29T07:35:20.275Z</time>
      </trkpt>
      <trkpt lat="41.60897" lon="41.61304">
        <ele>44.128338</ele>
        <time>2021-11-29T07:36:36.257Z</time>
      </trkpt>
      <trkpt lat="41.60713" lon="41.61418">
        <ele>36.015614</ele>
        <time>2021-11-29T07:37:43.271Z</time>
      </trkpt>
      <trkpt lat="41.6048" lon="41.61407">
        <ele>33.56911</ele>
        <time>2021-11-29T07:38:51.252Z</time>
      </trkpt>
      <trkpt lat="41.60276" lon="41.61423">
        <ele>36.937063</ele>
        <time>2021-11-29T07:39:59.265Z</time>
      </trkpt>
      <trkpt lat="41.60075" lon="41.61373">
        <ele>36.267957</ele>
        <time>2021-11-29T07:41:10.243Z</time>
      </trkpt>
      <trkpt lat="41.60009" lon="41.61031">
        <ele>33.11331</ele>
        <time>2021-11-29T07:42:13.291Z</time>
      </trkpt>
      <trkpt lat="41.59972" lon="41.60733">
        <ele>34.285184</ele>
        <time>2021-11-29T07:42:58.263Z</time>
      </trkpt>
      <trkpt lat="41.59933" lon="41.60422">
        <ele>32.58729</ele>
        <time>2021-11-29T07:43:42.253Z</time>
      </trkpt>
      <trkpt lat="41.59893" lon="41.6012">
        <ele>32.670621</ele>
        <time>2021-11-29T07:44:27.264Z</time>
      </trkpt>
      <trkpt lat="41.59776" lon="41.59862">
        <ele>34.570458</ele>
        <time>2021-11-29T07:45:24.271Z</time>
      </trkpt>
      <trkpt lat="41.59556" lon="41.59783">
        <ele>37.414328</ele>
        <time>2021-11-29T07:46:38.263Z</time>
      </trkpt>
      <trkpt lat="41.59346" lon="41.59724">
        <ele>37.758251</ele>
        <time>2021-11-29T07:47:45.268Z</time>
      </trkpt>
      <trkpt lat="41.59112" lon="41.59656">
        <ele>37.5613</ele>
        <time>2021-11-29T07:48:48.303Z</time>
      </trkpt>
      <trkpt lat="41.58887" lon="41.59595">
        <ele>35.143931</ele>
        <time>2021-11-29T07:49:37.306Z</time>
      </trkpt>
      <trkpt lat="41.58666" lon="41.59526">
        <ele>33.162214</ele>
        <time>2021-11-29T07:50:26.250Z</time>
      </trkpt>
      <trkpt lat="41.58551" lon="41.59283">
        <ele>31.18933</ele>
        <time>2021-11-29T07:51:13.276Z</time>
      </trkpt>
      <trkpt lat="41.5856" lon="41.58988">
        <ele>32.553486</ele>
        <time>2021-11-29T07:51:56.270Z</time>
      </trkpt>
      <trkpt lat="41.58549" lon="41.58673">
        <ele>29.281562</ele>
        <time>2021-11-29T07:52:42.256Z</time>
      </trkpt>
      <trkpt lat="41.58421" lon="41.58414">
        <ele>34.567476</ele>
        <time>2021-11-29T07:53:30.269Z</time>
      </trkpt>
      <trkpt lat="41.58289" lon="41.58159">
        <ele>34.451614</ele>
        <time>2021-11-29T07:54:19.269Z</time>
      </trkpt>
      <trkpt lat="41.5816" lon="41.57912">
        <ele>31.265268</ele>
        <time>2021-11-29T07:55:06.255Z</time>
      </trkpt>
      <trkpt lat="41.58044" lon="41.57683">
        <ele>29.009534</ele>
        <time>2021-11-29T07:55:48.305Z</time>
      </trkpt>
      <trkpt lat="41.57856" lon="41.5747">
        <ele>30.596367</ele>
        <time>2021-11-29T07:56:45.265Z</time>
      </trkpt>
      <trkpt lat="41.57624" lon="41.57322">
        <ele>34.396312</ele>
        <time>2021-11-29T07:57:48.266Z</time>
      </trkpt>
      <trkpt lat="41.57399" lon="41.57215">
        <ele>32.503787</ele>
        <time>2021-11-29T07:58:52.300Z</time>
      </trkpt>
      <trkpt lat="41.5715" lon="41.5718">
        <ele>24.268752</ele>
        <time>2021-11-29T08:15:19.309Z</time>
      </trkpt>
      <trkpt lat="41.56902" lon="41.57152">
        <ele>27.646925</ele>
        <time>2021-11-29T08:16:16.308Z</time>
      </trkpt>
      <trkpt lat="41.567" lon="41.57062">
        <ele>27.21074</ele>
        <time>2021-11-29T08:17:01.314Z</time>
      </trkpt>
      <trkpt lat="41.5649" lon="41.56924">
        <ele>25.849743</ele>
        <time>2021-11-29T08:17:47.307Z</time>
      </trkpt>
      <trkpt lat="41.56271" lon="41.56814">
        <ele>32.621236</ele>
        <time>2021-11-29T08:18:31.292Z</time>
      </trkpt>
      <trkpt lat="41.56047" lon="41.56721">
        <ele>28.798369</ele>
        <time>2021-11-29T08:19:21.287Z</time>
      </trkpt>
      <trkpt lat="41.55818" lon="41.56621">
        <ele>30.190996</ele>
        <time>2021-11-29T08:20:11.256Z</time>
      </trkpt>
      <trkpt lat="41.55606" lon="41.56535">
        <ele>28.674913</ele>
        <time>2021-11-29T08:20:57.318Z</time>
      </trkpt>
      <trkpt lat="41.55384" lon="41.56457">
        <ele>21.134246</ele>
        <time>2021-11-29T08:21:43.291Z</time>
      </trkpt>
      <trkpt lat="41.55162" lon="41.56416">
        <ele>30.607824</ele>
        <time>2021-11-29T08:22:27.271Z</time>
      </trkpt>
      <trkpt lat="41.54938" lon="41.56419">
        <ele>46.80494</ele>
        <time>2021-11-29T08:23:11.274Z</time>
      </trkpt>
      <trkpt lat="41.54685" lon="41.56423">
        <ele>50.321857</ele>
        <time>2021-11-29T08:24:08.265Z</time>
      </trkpt>
      <trkpt lat="41.54494" lon="41.56301">
        <ele>44.518204</ele>
        <time>2021-11-29T08:25:05.261Z</time>
      </trkpt>
      <trkpt lat="41.54405" lon="41.56012">
        <ele>38.753113</ele>
        <time>2021-11-29T08:26:21.268Z</time>
      </trkpt>
      <trkpt lat="41.54257" lon="41.55796">
        <ele>48.323261</ele>
        <time>2021-11-29T08:27:30.313Z</time>
      </trkpt>
      <trkpt lat="41.54125" lon="41.55529">
        <ele>45.163854</ele>
        <time>2021-11-29T08:28:27.265Z</time>
      </trkpt>
      <trkpt lat="41.53971" lon="41.55318">
        <ele>44.847705</ele>
        <time>2021-11-29T08:29:17.282Z</time>
      </trkpt>
      <trkpt lat="41.53739" lon="41.55191">
        <ele>64.99932</ele>
        <time>2021-11-29T08:30:18.269Z</time>
      </trkpt>
      <trkpt lat="41.53528" lon="41.55058">
        <ele>71.628424</ele>
        <time>2021-11-29T08:31:21.272Z</time>
      </trkpt>
      <trkpt lat="41.53303" lon="41.54962">
        <ele>60.160833</ele>
        <time>2021-11-29T08:32:12.264Z</time>
      </trkpt>
      <trkpt lat="41.53068" lon="41.54906">
        <ele>46.88681</ele>
        <time>2021-11-29T08:35:58.259Z</time>
      </trkpt>
      <trkpt lat="41.52836" lon="41.54874">
        <ele>42.156207</ele>
        <time>2021-11-29T08:36:43.270Z</time>
      </trkpt>
      <trkpt lat="41.52622" lon="41.54883">
        <ele>41.56637</ele>
        <time>2021-11-29T08:37:27.268Z</time>
      </trkpt>
      <trkpt lat="41.5237" lon="41.54869">
        <ele>41.710779</ele>
        <time>2021-11-29T08:38:19.255Z</time>
      </trkpt>
      <trkpt lat="41.52142" lon="41.54857">
        <ele>21.384497</ele>
        <time>2021-11-29T08:39:25.259Z</time>
      </trkpt>
      <trkpt lat="41.51928" lon="41.54774">
        <ele>47.958396</ele>
        <time>2021-11-29T09:29:13.279Z</time>
      </trkpt>
      <trkpt lat="41.51736" lon="41.54588">
        <ele>52.38799</ele>
        <time>2021-11-29T09:43:35.911Z</time>
      </trkpt>
      <trkpt lat="41.51553" lon="41.54465">
        <ele>37.61804</ele>
        <time>2021-11-29T09:44:43.915Z</time>
      </trkpt>
      <trkpt lat="41.51346" lon="41.54361">
        <ele>40.762032</ele>
        <time>2021-11-29T09:45:51.910Z</time>
      </trkpt>
      <trkpt lat="41.51129" lon="41.54221">
        <ele>37.85686</ele>
        <time>2021-11-29T09:46:54.916Z</time>
      </trkpt>
      <trkpt lat="41.51022" lon="41.53912">
        <ele>33.201854</ele>
        <time>2021-11-29T09:48:00.906Z</time>
      </trkpt>
      <trkpt lat="41.5082" lon="41.53714">
        <ele>38.45433</ele>
        <time>2021-11-29T09:49:01.914Z</time>
      </trkpt>
      <trkpt lat="41.50629" lon="41.53564">
        <ele>37.515874</ele>
        <time>2021-11-29T09:49:47.903Z</time>
      </trkpt>
      <trkpt lat="41.504" lon="41.53459">
        <ele>35.765869</ele>
        <time>2021-11-29T09:50:35.942Z</time>
      </trkpt>
      <trkpt lat="41.50179" lon="41.53328">
        <ele>36.000729</ele>
        <time>2021-11-29T09:51:19.903Z</time>
      </trkpt>
      <trkpt lat="41.49956" lon="41.53217">
        <ele>35.236486</ele>
        <time>2021-11-29T09:52:10.902Z</time>
      </trkpt>
      <trkpt lat="41.49721" lon="41.53187">
        <ele>35.093414</ele>
        <time>2021-11-29T09:53:03.905Z</time>
      </trkpt>
      <trkpt lat="41.49471" lon="41.53174">
        <ele>38.152367</ele>
        <time>2021-11-29T09:54:06.909Z</time>
      </trkpt>
      <trkpt lat="41.49224" lon="41.53089">
        <ele>36.155337</ele>
        <time>2021-11-29T09:55:06.921Z</time>
      </trkpt>
      <trkpt lat="41.4899" lon="41.53005">
        <ele>34.798041</ele>
        <time>2021-11-29T09:55:59.926Z</time>
      </trkpt>
      <trkpt lat="41.48777" lon="41.5289">
        <ele>38.699036</ele>
        <time>2021-11-29T09:56:47.904Z</time>
      </trkpt>
      <trkpt lat="41.48596" lon="41.52702">
        <ele>40.407812</ele>
        <time>2021-11-29T09:57:31.929Z</time>
      </trkpt>
      <trkpt lat="41.48415" lon="41.52497">
        <ele>35.877579</ele>
        <time>2021-11-29T09:58:13.953Z</time>
      </trkpt>
      <trkpt lat="41.48224" lon="41.52288">
        <ele>37.572055</ele>
        <time>2021-11-29T09:59:13.929Z</time>
      </trkpt>
      <trkpt lat="41.48146" lon="41.52017">
        <ele>31.36493</ele>
        <time>2021-11-29T09:59:59.910Z</time>
      </trkpt>
      <trkpt lat="41.48055" lon="41.51742">
        <ele>43.032831</ele>
        <time>2021-11-29T10:00:49.920Z</time>
      </trkpt>
      <trkpt lat="41.47925" lon="41.51499">
        <ele>54.012484</ele>
        <time>2021-11-29T10:01:36.922Z</time>
      </trkpt>
      <trkpt lat="41.47838" lon="41.51202">
        <ele>53.896652</ele>
        <time>2021-11-29T10:02:30.933Z</time>
      </trkpt>
      <trkpt lat="41.47691" lon="41.50933">
        <ele>41.592817</ele>
        <time>2021-11-29T10:03:33.923Z</time>
      </trkpt>
      <trkpt lat="41.47531" lon="41.50693">
        <ele>42.631852</ele>
        <time>2021-11-29T10:04:28.951Z</time>
      </trkpt>
      <trkpt lat="41.47319" lon="41.50466">
        <ele>39.657463</ele>
        <time>2021-11-29T10:05:34.910Z</time>
      </trkpt>
      <trkpt lat="41.47145" lon="41.50287">
        <ele>35.044829</ele>
        <time>2021-11-29T10:06:19.955Z</time>
      </trkpt>
      <trkpt lat="41.47081" lon="41.50008">
        <ele>30.480331</ele>
        <time>2021-11-29T10:07:03.912Z</time>
      </trkpt>
      <trkpt lat="41.47044" lon="41.49732">
        <ele>25.839864</ele>
        <time>2021-11-29T10:07:47.917Z</time>
      </trkpt>
      <trkpt lat="41.46961" lon="41.49437">
        <ele>23.574086</ele>
        <time>2021-11-29T10:08:33.902Z</time>
      </trkpt>
      <trkpt lat="41.46959" lon="41.49133">
        <ele>21.221419</ele>
        <time>2021-11-29T10:09:21.926Z</time>
      </trkpt>
      <trkpt lat="41.46805" lon="41.4893">
        <ele>18.610991</ele>
        <time>2021-11-29T10:10:05.915Z</time>
      </trkpt>
      <trkpt lat="41.46594" lon="41.48755">
        <ele>16.446404</ele>
        <time>2021-11-29T10:11:00.904Z</time>
      </trkpt>
      <trkpt lat="41.46454" lon="41.48546">
        <ele>13.084427</ele>
        <time>2021-11-29T10:11:45.918Z</time>
      </trkpt>
      <trkpt lat="41.4632" lon="41.48288">
        <ele>11.160352</ele>
        <time>2021-11-29T10:12:38.927Z</time>
      </trkpt>
      <trkpt lat="41.46167" lon="41.48083">
        <ele>11.468588</ele>
        <time>2021-11-29T10:13:22.916Z</time>
      </trkpt>
      <trkpt lat="41.46134" lon="41.47796">
        <ele>4.884648</ele>
        <time>2021-11-29T10:14:07.907Z</time>
      </trkpt>
      <trkpt lat="41.4608" lon="41.47517">
        <ele>-0.693505</ele>
        <time>2021-11-29T10:14:53.921Z</time>
      </trkpt>
      <trkpt lat="41.45908" lon="41.47373">
        <ele>-1.778627</ele>
        <time>2021-11-29T10:15:36.913Z</time>
      </trkpt>
      <trkpt lat="41.45691" lon="41.47293">
        <ele>3.713747</ele>
        <time>2021-11-29T10:16:20.917Z</time>
      </trkpt>
      <trkpt lat="41.45463" lon="41.4724">
        <ele>1.587068</ele>
        <time>2021-11-29T10:17:05.914Z</time>
      </trkpt>
      <trkpt lat="41.45278" lon="41.47077">
        <ele>-3.948892</ele>
        <time>2021-11-29T10:17:51.909Z</time>
      </trkpt>
      <trkpt lat="41.45163" lon="41.46793">
        <ele>-7.644682</ele>
        <time>2021-11-29T10:18:47.899Z</time>
      </trkpt>
      <trkpt lat="41.45082" lon="41.46487">
        <ele>-9.335807</ele>
        <time>2021-11-29T10:19:45.919Z</time>
      </trkpt>
      <trkpt lat="41.4491" lon="41.46263">
        <ele>-13.43981</ele>
        <time>2021-11-29T10:20:44.910Z</time>
      </trkpt>
      <trkpt lat="41.44734" lon="41.4609">
        <ele>-14.544383</ele>
        <time>2021-11-29T10:21:29.929Z</time>
      </trkpt>
      <trkpt lat="41.4455" lon="41.45907">
        <ele>-6.114143</ele>
        <time>2021-11-29T10:22:13.922Z</time>
      </trkpt>
      <trkpt lat="41.4434" lon="41.45756">
        <ele>-0.82631</ele>
        <time>2021-11-29T10:22:57.911Z</time>
      </trkpt>
      <trkpt lat="41.44133" lon="41.45658">
        <ele>0.071894</ele>
        <time>2021-11-29T10:23:41.922Z</time>
      </trkpt>
      <trkpt lat="41.43923" lon="41.45454">
        <ele>1.048461</ele>
        <time>2021-11-29T10:24:42.906Z</time>
      </trkpt>
      <trkpt lat="41.43753" lon="41.45239">
        <ele>2.220825</ele>
        <time>2021-11-29T10:25:41.913Z</time>
      </trkpt>
      <trkpt lat="41.43563" lon="41.45103">
        <ele>11.924139</ele>
        <time>2021-11-29T10:26:26.957Z</time>
      </trkpt>
      <trkpt lat="41.43347" lon="41.44974">
        <ele>22.18544</ele>
        <time>2021-11-29T10:27:16.935Z</time>
      </trkpt>
      <trkpt lat="41.43144" lon="41.44845">
        <ele>19.031537</ele>
        <time>2021-11-29T10:27:58.924Z</time>
      </trkpt>
      <trkpt lat="41.42952" lon="41.44672">
        <ele>21.579968</ele>
        <time>2021-11-29T10:28:42.919Z</time>
      </trkpt>
      <trkpt lat="41.42784" lon="41.44483">
        <ele>24.482485</ele>
        <time>2021-11-29T10:29:26.936Z</time>
      </trkpt>
      <trkpt lat="41.42595" lon="41.44301">
        <ele>24.043022</ele>
        <time>2021-11-29T10:30:12.914Z</time>
      </trkpt>
      <trkpt lat="41.42376" lon="41.44155">
        <ele>20.968353</ele>
        <time>2021-11-29T10:30:56.918Z</time>
      </trkpt>
      <trkpt lat="41.42177" lon="41.44028">
        <ele>15.891985</ele>
        <time>2021-11-29T10:31:38.950Z</time>
      </trkpt>
      <trkpt lat="41.4202" lon="41.43835">
        <ele>16.11364</ele>
        <time>2021-11-29T10:32:22.920Z</time>
      </trkpt>
      <trkpt lat="41.41779" lon="41.43769">
        <ele>26.151724</ele>
        <time>2021-11-29T10:33:17.916Z</time>
      </trkpt>
      <trkpt lat="41.41578" lon="41.43655">
        <ele>25.153634</ele>
        <time>2021-11-29T10:34:01.921Z</time>
      </trkpt>
      <trkpt lat="41.41366" lon="41.43526">
        <ele>23.398877</ele>
        <time>2021-11-29T10:34:45.907Z</time>
      </trkpt>
      <trkpt lat="41.41158" lon="41.43379">
        <ele>26.522323</ele>
        <time>2021-11-29T10:35:32.925Z</time>
      </trkpt>
      <trkpt lat="41.40954" lon="41.43238">
        <ele>32.809981</ele>
        <time>2021-11-29T10:36:20.938Z</time>
      </trkpt>
      <trkpt lat="41.40737" lon="41.43084">
        <ele>32.496953</ele>
        <time>2021-11-29T10:37:14.996Z</time>
      </trkpt>
      <trkpt lat="41.40555" lon="41.42928">
        <ele>29.015936</ele>
        <time>2021-11-29T10:38:01.911Z</time>
      </trkpt>
      <trkpt lat="41.40359" lon="41.4275">
        <ele>29.223197</ele>
        <time>2021-11-29T10:38:54.914Z</time>
      </trkpt>
      <trkpt lat="41.40178" lon="41.42598">
        <ele>27.700467</ele>
        <time>2021-11-29T10:39:40.920Z</time>
      </trkpt>
      <trkpt lat="41.39963" lon="41.42409">
        <ele>28.623018</ele>
        <time>2021-11-29T10:40:39.912Z</time>
      </trkpt>
      <trkpt lat="41.39762" lon="41.42237">
        <ele>30.658737</ele>
        <time>2021-11-29T10:42:04.910Z</time>
      </trkpt>
      <trkpt lat="41.39667" lon="41.42185">
        <ele>30.658737</ele>
        <time>2021-11-29T10:44:01.924Z</time>
      </trkpt>
    </trkseg>
  </trk>
</gpx>